sensor_id;sensor_type;location;lat;lon;timestamp;temperature;humidity
48604;DHT22;32708;51.212;6.788;2022-08-19T00:01:50;22.60;1.00
48604;DHT22;32708;51.212;6.788;2022-08-19T00:04:21;22.50;1.00
48604;DHT22;32708;51.212;6.788;2022-08-19T00:06:51;22.40;1.00
48604;DHT22;32708;51.212;6.788;2022-08-19T00:09:20;22.30;1.00
48604;DHT22;32708;51.212;6.788;2022-08-19T00:11:47;22.40;1.00
48604;DHT22;32708;51.212;6.788;2022-08-19T00:14:16;22.50;1.00
48604;DHT22;32708;51.212;6.788;2022-08-19T00:16:46;22.50;1.00
48604;DHT22;32708;51.212;6.788;2022-08-19T00:19:14;22.40;1.00
48604;DHT22;32708;51.212;6.788;2022-08-19T00:21:42;22.50;1.00
48604;DHT22;32708;51.212;6.788;2022-08-19T00:24:11;22.50;1.00
48604;DHT22;32708;51.212;6.788;2022-08-19T00:26:39;22.50;1.00
48604;DHT22;32708;51.212;6.788;2022-08-19T00:29:08;22.40;1.00
48604;DHT22;32708;51.212;6.788;2022-08-19T00:31:36;22.20;1.00
48604;DHT22;32708;51.212;6.788;2022-08-19T00:34:03;22.10;1.00
48604;DHT22;32708;51.212;6.788;2022-08-19T00:36:29;22.00;7.10
48604;DHT22;32708;51.212;6.788;2022-08-19T00:38:57;22.00;7.60
48604;DHT22;32708;51.212;6.788;2022-08-19T00:41:25;22.00;5.80
48604;DHT22;32708;51.212;6.788;2022-08-19T00:46:27;21.80;16.50
48604;DHT22;32708;51.212;6.788;2022-08-19T00:48:54;21.80;15.20
48604;DHT22;32708;51.212;6.788;2022-08-19T00:51:26;21.80;12.60
48604;DHT22;32708;51.212;6.788;2022-08-19T00:53:58;21.60;24.80
48604;DHT22;32708;51.212;6.788;2022-08-19T00:56:27;21.60;30.00
48604;DHT22;32708;51.212;6.788;2022-08-19T00:58:56;21.60;23.50
48604;DHT22;32708;51.212;6.788;2022-08-19T01:01:24;21.70;22.90
48604;DHT22;32708;51.212;6.788;2022-08-19T01:03:51;21.70;22.10
48604;DHT22;32708;51.212;6.788;2022-08-19T01:06:18;21.60;24.20
48604;DHT22;32708;51.212;6.788;2022-08-19T01:08:44;21.50;32.40
48604;DHT22;32708;51.212;6.788;2022-08-19T01:11:12;21.50;32.60
48604;DHT22;32708;51.212;6.788;2022-08-19T01:13:39;21.50;33.00
48604;DHT22;32708;51.212;6.788;2022-08-19T01:16:10;21.50;36.20
48604;DHT22;32708;51.212;6.788;2022-08-19T01:18:41;21.50;36.40
48604;DHT22;32708;51.212;6.788;2022-08-19T01:21:24;21.60;35.50
48604;DHT22;32708;51.212;6.788;2022-08-19T01:23:57;21.60;33.10
48604;DHT22;32708;51.212;6.788;2022-08-19T01:26:25;21.60;32.10
48604;DHT22;32708;51.212;6.788;2022-08-19T01:28:56;21.50;38.10
48604;DHT22;32708;51.212;6.788;2022-08-19T01:31:26;21.30;46.10
48604;DHT22;32708;51.212;6.788;2022-08-19T01:33:57;21.30;50.10
48604;DHT22;32708;51.212;6.788;2022-08-19T01:36:41;21.10;57.30
48604;DHT22;32708;51.212;6.788;2022-08-19T01:39:21;21.20;58.70
48604;DHT22;32708;51.212;6.788;2022-08-19T01:41:49;21.10;62.00
48604;DHT22;32708;51.212;6.788;2022-08-19T01:44:16;21.00;64.40
48604;DHT22;32708;51.212;6.788;2022-08-19T01:46:48;21.00;66.90
48604;DHT22;32708;51.212;6.788;2022-08-19T01:49:15;21.00;66.50
48604;DHT22;32708;51.212;6.788;2022-08-19T01:51:43;21.00;64.20
48604;DHT22;32708;51.212;6.788;2022-08-19T01:54:10;21.10;64.60
48604;DHT22;32708;51.212;6.788;2022-08-19T01:56:38;21.00;64.60
48604;DHT22;32708;51.212;6.788;2022-08-19T01:59:10;21.10;60.80
48604;DHT22;32708;51.212;6.788;2022-08-19T02:01:42;21.20;53.10
48604;DHT22;32708;51.212;6.788;2022-08-19T02:04:09;21.20;51.80
48604;DHT22;32708;51.212;6.788;2022-08-19T02:06:35;21.20;51.70
48604;DHT22;32708;51.212;6.788;2022-08-19T02:09:03;21.20;48.40
48604;DHT22;32708;51.212;6.788;2022-08-19T02:11:34;21.20;47.20
48604;DHT22;32708;51.212;6.788;2022-08-19T02:14:04;21.10;49.80
48604;DHT22;32708;51.212;6.788;2022-08-19T02:16:33;20.80;66.50
48604;DHT22;32708;51.212;6.788;2022-08-19T02:19:00;20.80;72.60
48604;DHT22;32708;51.212;6.788;2022-08-19T02:21:28;20.70;73.30
48604;DHT22;32708;51.212;6.788;2022-08-19T02:23:56;20.90;71.10
48604;DHT22;32708;51.212;6.788;2022-08-19T02:26:22;20.90;67.80
48604;DHT22;32708;51.212;6.788;2022-08-19T02:28:49;21.10;64.40
48604;DHT22;32708;51.212;6.788;2022-08-19T02:31:19;21.10;60.70
48604;DHT22;32708;51.212;6.788;2022-08-19T02:33:48;21.20;56.50
48604;DHT22;32708;51.212;6.788;2022-08-19T02:36:16;21.30;53.90
48604;DHT22;32708;51.212;6.788;2022-08-19T02:38:44;21.30;53.60
48604;DHT22;32708;51.212;6.788;2022-08-19T02:41:20;21.20;55.20
48604;DHT22;32708;51.212;6.788;2022-08-19T02:43:55;21.20;68.90
48604;DHT22;32708;51.212;6.788;2022-08-19T02:46:27;21.20;72.70
48604;DHT22;32708;51.212;6.788;2022-08-19T02:48:59;21.10;77.00
48604;DHT22;32708;51.212;6.788;2022-08-19T02:51:31;21.10;78.00
48604;DHT22;32708;51.212;6.788;2022-08-19T02:54:05;21.20;77.90
48604;DHT22;32708;51.212;6.788;2022-08-19T02:56:34;21.20;75.50
48604;DHT22;32708;51.212;6.788;2022-08-19T02:59:03;21.30;72.70
48604;DHT22;32708;51.212;6.788;2022-08-19T03:01:37;21.20;72.30
48604;DHT22;32708;51.212;6.788;2022-08-19T03:04:08;21.20;71.60
48604;DHT22;32708;51.212;6.788;2022-08-19T03:06:37;21.20;70.70
48604;DHT22;32708;51.212;6.788;2022-08-19T03:09:05;21.10;73.70
48604;DHT22;32708;51.212;6.788;2022-08-19T03:11:32;21.00;74.50
48604;DHT22;32708;51.212;6.788;2022-08-19T03:14:00;21.00;74.80
48604;DHT22;32708;51.212;6.788;2022-08-19T03:16:31;20.90;78.30
48604;DHT22;32708;51.212;6.788;2022-08-19T03:18:58;20.90;78.50
48604;DHT22;32708;51.212;6.788;2022-08-19T03:21:29;20.90;77.70
48604;DHT22;32708;51.212;6.788;2022-08-19T03:23:59;21.00;75.80
48604;DHT22;32708;51.212;6.788;2022-08-19T03:26:28;21.00;75.60
48604;DHT22;32708;51.212;6.788;2022-08-19T03:28:54;21.00;74.50
48604;DHT22;32708;51.212;6.788;2022-08-19T03:31:22;21.00;75.70
48604;DHT22;32708;51.212;6.788;2022-08-19T03:33:50;21.00;74.30
48604;DHT22;32708;51.212;6.788;2022-08-19T03:36:24;21.00;72.00
48604;DHT22;32708;51.212;6.788;2022-08-19T03:38:55;21.10;72.50
48604;DHT22;32708;51.212;6.788;2022-08-19T03:41:36;21.10;68.40
48604;DHT22;32708;51.212;6.788;2022-08-19T03:44:04;21.00;73.80
48604;DHT22;32708;51.212;6.788;2022-08-19T03:46:32;20.80;80.70
48604;DHT22;32708;51.212;6.788;2022-08-19T03:49:02;20.70;84.10
48604;DHT22;32708;51.212;6.788;2022-08-19T03:51:36;20.70;85.50
48604;DHT22;32708;51.212;6.788;2022-08-19T03:54:08;20.70;86.60
48604;DHT22;32708;51.212;6.788;2022-08-19T03:56:39;20.60;86.90
48604;DHT22;32708;51.212;6.788;2022-08-19T03:59:13;20.50;89.70
48604;DHT22;32708;51.212;6.788;2022-08-19T04:01:43;20.50;90.80
48604;DHT22;32708;51.212;6.788;2022-08-19T04:04:09;20.50;90.10
48604;DHT22;32708;51.212;6.788;2022-08-19T04:06:37;20.50;90.40
48604;DHT22;32708;51.212;6.788;2022-08-19T04:09:07;20.50;90.40
48604;DHT22;32708;51.212;6.788;2022-08-19T04:11:41;20.40;91.40
48604;DHT22;32708;51.212;6.788;2022-08-19T04:14:13;20.40;90.80
48604;DHT22;32708;51.212;6.788;2022-08-19T04:16:42;20.40;91.00
48604;DHT22;32708;51.212;6.788;2022-08-19T04:19:13;20.50;90.70
48604;DHT22;32708;51.212;6.788;2022-08-19T04:21:45;20.50;89.60
48604;DHT22;32708;51.212;6.788;2022-08-19T04:24:14;20.60;89.20
48604;DHT22;32708;51.212;6.788;2022-08-19T04:26:41;20.60;88.00
48604;DHT22;32708;51.212;6.788;2022-08-19T04:29:12;20.50;88.50
48604;DHT22;32708;51.212;6.788;2022-08-19T04:31:45;20.60;88.10
48604;DHT22;32708;51.212;6.788;2022-08-19T04:34:15;20.50;89.70
48604;DHT22;32708;51.212;6.788;2022-08-19T04:36:44;20.50;90.00
48604;DHT22;32708;51.212;6.788;2022-08-19T04:39:14;20.20;93.30
48604;DHT22;32708;51.212;6.788;2022-08-19T04:41:42;20.30;92.90
48604;DHT22;32708;51.212;6.788;2022-08-19T04:44:27;20.30;92.20
48604;DHT22;32708;51.212;6.788;2022-08-19T04:46:56;20.50;91.20
48604;DHT22;32708;51.212;6.788;2022-08-19T04:49:24;20.50;90.80
48604;DHT22;32708;51.212;6.788;2022-08-19T04:51:53;20.50;90.50
48604;DHT22;32708;51.212;6.788;2022-08-19T04:54:23;20.60;90.00
48604;DHT22;32708;51.212;6.788;2022-08-19T04:56:52;20.60;89.50
48604;DHT22;32708;51.212;6.788;2022-08-19T04:59:20;20.60;89.10
48604;DHT22;32708;51.212;6.788;2022-08-19T05:01:47;20.60;87.60
48604;DHT22;32708;51.212;6.788;2022-08-19T05:04:18;20.70;87.30
48604;DHT22;32708;51.212;6.788;2022-08-19T05:06:47;20.60;87.20
48604;DHT22;32708;51.212;6.788;2022-08-19T05:09:15;20.70;83.90
48604;DHT22;32708;51.212;6.788;2022-08-19T05:11:43;20.70;82.00
48604;DHT22;32708;51.212;6.788;2022-08-19T05:14:11;20.80;80.00
48604;DHT22;32708;51.212;6.788;2022-08-19T05:16:39;20.80;77.70
48604;DHT22;32708;51.212;6.788;2022-08-19T05:19:06;20.90;73.30
48604;DHT22;32708;51.212;6.788;2022-08-19T05:21:51;20.90;72.20
48604;DHT22;32708;51.212;6.788;2022-08-19T05:24:37;20.80;73.80
48604;DHT22;32708;51.212;6.788;2022-08-19T05:27:03;20.80;74.20
48604;DHT22;32708;51.212;6.788;2022-08-19T05:29:33;20.70;77.20
48604;DHT22;32708;51.212;6.788;2022-08-19T05:32:04;20.70;78.10
48604;DHT22;32708;51.212;6.788;2022-08-19T05:34:37;20.80;75.20
48604;DHT22;32708;51.212;6.788;2022-08-19T05:37:05;20.80;73.90
48604;DHT22;32708;51.212;6.788;2022-08-19T05:39:35;20.90;72.50
48604;DHT22;32708;51.212;6.788;2022-08-19T05:42:09;20.90;73.70
48604;DHT22;32708;51.212;6.788;2022-08-19T05:44:40;20.90;73.90
48604;DHT22;32708;51.212;6.788;2022-08-19T05:47:13;21.20;66.90
48604;DHT22;32708;51.212;6.788;2022-08-19T05:49:42;21.50;53.60
48604;DHT22;32708;51.212;6.788;2022-08-19T05:52:11;21.70;41.80
48604;DHT22;32708;51.212;6.788;2022-08-19T05:54:41;22.00;37.60
48604;DHT22;32708;51.212;6.788;2022-08-19T05:57:09;22.40;17.50
48604;DHT22;32708;51.212;6.788;2022-08-19T05:59:36;22.50;12.30
48604;DHT22;32708;51.212;6.788;2022-08-19T06:02:03;22.60;1.00
48604;DHT22;32708;51.212;6.788;2022-08-19T06:04:31;22.80;1.00
48604;DHT22;32708;51.212;6.788;2022-08-19T06:06:57;22.70;1.00
48604;DHT22;32708;51.212;6.788;2022-08-19T06:09:24;22.90;1.00
48604;DHT22;32708;51.212;6.788;2022-08-19T06:11:54;22.60;4.20
48604;DHT22;32708;51.212;6.788;2022-08-19T06:14:30;22.60;9.80
48604;DHT22;32708;51.212;6.788;2022-08-19T06:16:59;22.90;1.00
48604;DHT22;32708;51.212;6.788;2022-08-19T06:19:29;22.80;1.00
48604;DHT22;32708;51.212;6.788;2022-08-19T06:21:58;23.00;1.00
48604;DHT22;32708;51.212;6.788;2022-08-19T06:24:28;22.80;1.00
48604;DHT22;32708;51.212;6.788;2022-08-19T06:26:57;22.40;23.90
48604;DHT22;32708;51.212;6.788;2022-08-19T06:29:26;22.20;32.90
48604;DHT22;32708;51.212;6.788;2022-08-19T06:31:56;22.50;22.20
48604;DHT22;32708;51.212;6.788;2022-08-19T06:34:24;22.50;17.60
48604;DHT22;32708;51.212;6.788;2022-08-19T06:36:53;22.30;23.30
48604;DHT22;32708;51.212;6.788;2022-08-19T06:39:23;22.20;36.40
48604;DHT22;32708;51.212;6.788;2022-08-19T06:41:56;22.30;29.20
48604;DHT22;32708;51.212;6.788;2022-08-19T06:44:29;22.20;30.40
48604;DHT22;32708;51.212;6.788;2022-08-19T06:47:06;22.20;32.40
48604;DHT22;32708;51.212;6.788;2022-08-19T06:49:34;21.80;49.20
48604;DHT22;32708;51.212;6.788;2022-08-19T06:52:02;21.60;58.40
48604;DHT22;32708;51.212;6.788;2022-08-19T06:54:30;21.40;66.60
48604;DHT22;32708;51.212;6.788;2022-08-19T06:56:58;21.60;60.10
48604;DHT22;32708;51.212;6.788;2022-08-19T06:59:30;22.10;39.50
48604;DHT22;32708;51.212;6.788;2022-08-19T07:02:02;22.30;26.80
48604;DHT22;32708;51.212;6.788;2022-08-19T07:04:34;22.50;18.60
48604;DHT22;32708;51.212;6.788;2022-08-19T07:07:05;22.50;14.80
48604;DHT22;32708;51.212;6.788;2022-08-19T07:09:40;22.60;9.20
48604;DHT22;32708;51.212;6.788;2022-08-19T07:12:12;22.70;4.70
48604;DHT22;32708;51.212;6.788;2022-08-19T07:14:43;22.70;2.90
48604;DHT22;32708;51.212;6.788;2022-08-19T07:17:12;22.40;16.00
48604;DHT22;32708;51.212;6.788;2022-08-19T07:19:39;22.40;17.10
48604;DHT22;32708;51.212;6.788;2022-08-19T07:22:08;22.30;25.50
48604;DHT22;32708;51.212;6.788;2022-08-19T07:24:36;22.10;37.90
48604;DHT22;32708;51.212;6.788;2022-08-19T07:27:06;22.20;30.90
48604;DHT22;32708;51.212;6.788;2022-08-19T07:29:35;22.20;29.80
48604;DHT22;32708;51.212;6.788;2022-08-19T07:32:03;22.20;26.10
48604;DHT22;32708;51.212;6.788;2022-08-19T07:34:32;22.00;36.80
48604;DHT22;32708;51.212;6.788;2022-08-19T07:37:05;22.10;29.50
48604;DHT22;32708;51.212;6.788;2022-08-19T07:39:34;22.30;18.50
48604;DHT22;32708;51.212;6.788;2022-08-19T07:42:08;22.50;11.10
48604;DHT22;32708;51.212;6.788;2022-08-19T07:44:37;22.80;1.00
48604;DHT22;32708;51.212;6.788;2022-08-19T07:47:04;23.20;1.00
48604;DHT22;32708;51.212;6.788;2022-08-19T07:49:31;23.70;1.00
48604;DHT22;32708;51.212;6.788;2022-08-19T07:52:00;23.80;1.00
48604;DHT22;32708;51.212;6.788;2022-08-19T07:54:33;24.30;99.90
48604;DHT22;32708;51.212;6.788;2022-08-19T07:57:03;24.50;99.90
48604;DHT22;32708;51.212;6.788;2022-08-19T07:59:31;24.80;99.90
48604;DHT22;32708;51.212;6.788;2022-08-19T08:01:58;24.80;78.60
48604;DHT22;32708;51.212;6.788;2022-08-19T08:04:30;25.00;99.90
48604;DHT22;32708;51.212;6.788;2022-08-19T08:07:15;24.60;99.90
48604;DHT22;32708;51.212;6.788;2022-08-19T08:10:00;24.20;99.90
48604;DHT22;32708;51.212;6.788;2022-08-19T08:12:31;24.20;99.90
48604;DHT22;32708;51.212;6.788;2022-08-19T08:15:04;24.30;99.90
48604;DHT22;32708;51.212;6.788;2022-08-19T08:17:34;24.50;99.90
48604;DHT22;32708;51.212;6.788;2022-08-19T08:20:06;24.70;99.90
48604;DHT22;32708;51.212;6.788;2022-08-19T08:22:33;24.60;99.90
48604;DHT22;32708;51.212;6.788;2022-08-19T08:25:20;24.40;99.90
48604;DHT22;32708;51.212;6.788;2022-08-19T08:27:49;24.60;99.90
48604;DHT22;32708;51.212;6.788;2022-08-19T08:30:22;24.70;99.90
48604;DHT22;32708;51.212;6.788;2022-08-19T08:32:51;24.70;99.90
48604;DHT22;32708;51.212;6.788;2022-08-19T08:35:20;24.90;68.20
48604;DHT22;32708;51.212;6.788;2022-08-19T08:37:51;25.30;99.90
48604;DHT22;32708;51.212;6.788;2022-08-19T08:40:44;25.40;15.40
48604;DHT22;32708;51.212;6.788;2022-08-19T08:43:29;25.80;99.90
48604;DHT22;32708;51.212;6.788;2022-08-19T08:46:13;26.10;99.90
48604;DHT22;32708;51.212;6.788;2022-08-19T08:48:50;26.00;99.90
48604;DHT22;32708;51.212;6.788;2022-08-19T08:51:38;25.80;99.90
48604;DHT22;32708;51.212;6.788;2022-08-19T08:54:13;26.50;99.90
48604;DHT22;32708;51.212;6.788;2022-08-19T08:56:45;26.30;82.40
48604;DHT22;32708;51.212;6.788;2022-08-19T08:59:35;26.40;99.90
48604;DHT22;32708;51.212;6.788;2022-08-19T09:02:03;25.80;1.00
48604;DHT22;32708;51.212;6.788;2022-08-19T09:04:30;25.60;27.00
48604;DHT22;32708;51.212;6.788;2022-08-19T09:10:38;25.10;9.20
48604;DHT22;32708;51.212;6.788;2022-08-19T09:16:05;25.20;1.00
48604;DHT22;32708;51.212;6.788;2022-08-19T09:18:48;25.50;71.20
48604;DHT22;32708;51.212;6.788;2022-08-19T09:21:20;25.80;99.90
48604;DHT22;32708;51.212;6.788;2022-08-19T09:23:49;25.90;99.90
48604;DHT22;32708;51.212;6.788;2022-08-19T09:26:19;25.90;99.90
48604;DHT22;32708;51.212;6.788;2022-08-19T09:28:48;26.10;99.90
48604;DHT22;32708;51.212;6.788;2022-08-19T09:31:19;26.00;99.90
48604;DHT22;32708;51.212;6.788;2022-08-19T09:33:51;26.10;99.90
48604;DHT22;32708;51.212;6.788;2022-08-19T09:36:24;26.30;40.40
48604;DHT22;32708;51.212;6.788;2022-08-19T09:38:53;26.40;1.00
48604;DHT22;32708;51.212;6.788;2022-08-19T09:41:22;26.50;1.00
48604;DHT22;32708;51.212;6.788;2022-08-19T09:43:52;26.00;1.00
48604;DHT22;32708;51.212;6.788;2022-08-19T09:46:23;25.60;1.00
48604;DHT22;32708;51.212;6.788;2022-08-19T09:48:53;25.40;86.20
48604;DHT22;32708;51.212;6.788;2022-08-19T09:51:23;25.90;1.00
48604;DHT22;32708;51.212;6.788;2022-08-19T09:53:52;26.00;1.00
48604;DHT22;32708;51.212;6.788;2022-08-19T09:56:22;26.40;1.00
48604;DHT22;32708;51.212;6.788;2022-08-19T09:58:49;26.90;1.00
48604;DHT22;32708;51.212;6.788;2022-08-19T10:01:22;26.80;99.90
48604;DHT22;32708;51.212;6.788;2022-08-19T10:03:53;27.00;99.90
48604;DHT22;32708;51.212;6.788;2022-08-19T10:06:26;27.20;99.90
48604;DHT22;32708;51.212;6.788;2022-08-19T10:09:00;26.90;99.90
48604;DHT22;32708;51.212;6.788;2022-08-19T10:11:26;26.60;99.90
48604;DHT22;32708;51.212;6.788;2022-08-19T10:13:53;26.90;99.90
48604;DHT22;32708;51.212;6.788;2022-08-19T10:16:22;27.10;99.90
48604;DHT22;32708;51.212;6.788;2022-08-19T10:18:50;26.80;99.90
48604;DHT22;32708;51.212;6.788;2022-08-19T10:21:24;26.90;99.90
48604;DHT22;32708;51.212;6.788;2022-08-19T10:23:56;26.80;99.90
48604;DHT22;32708;51.212;6.788;2022-08-19T10:26:27;26.60;99.90
48604;DHT22;32708;51.212;6.788;2022-08-19T10:28:56;26.70;99.90
48604;DHT22;32708;51.212;6.788;2022-08-19T10:31:26;26.90;99.90
48604;DHT22;32708;51.212;6.788;2022-08-19T10:33:55;26.90;99.90
48604;DHT22;32708;51.212;6.788;2022-08-19T10:36:33;27.20;99.90
48604;DHT22;32708;51.212;6.788;2022-08-19T10:39:08;27.60;99.90
48604;DHT22;32708;51.212;6.788;2022-08-19T10:41:37;27.90;99.90
48604;DHT22;32708;51.212;6.788;2022-08-19T10:44:10;27.60;99.90
48604;DHT22;32708;51.212;6.788;2022-08-19T10:46:41;28.00;99.90
48604;DHT22;32708;51.212;6.788;2022-08-19T10:49:12;28.20;99.90
48604;DHT22;32708;51.212;6.788;2022-08-19T10:51:40;28.30;99.90
48604;DHT22;32708;51.212;6.788;2022-08-19T10:54:26;28.30;99.90
48604;DHT22;32708;51.212;6.788;2022-08-19T10:57:13;27.60;99.90
48604;DHT22;32708;51.212;6.788;2022-08-19T10:59:41;27.10;99.90
48604;DHT22;32708;51.212;6.788;2022-08-19T11:02:10;26.60;99.90
48604;DHT22;32708;51.212;6.788;2022-08-19T11:04:40;26.00;99.90
48604;DHT22;32708;51.212;6.788;2022-08-19T11:07:09;26.10;99.90
48604;DHT22;32708;51.212;6.788;2022-08-19T11:09:41;25.90;99.90
48604;DHT22;32708;51.212;6.788;2022-08-19T11:12:09;26.30;99.90
48604;DHT22;32708;51.212;6.788;2022-08-19T11:14:38;26.70;99.90
48604;DHT22;32708;51.212;6.788;2022-08-19T11:17:06;27.20;99.90
48604;DHT22;32708;51.212;6.788;2022-08-19T11:19:32;27.50;99.90
48604;DHT22;32708;51.212;6.788;2022-08-19T11:21:59;27.70;99.90
48604;DHT22;32708;51.212;6.788;2022-08-19T11:24:28;27.90;99.90
48604;DHT22;32708;51.212;6.788;2022-08-19T11:27:06;28.10;99.90
48604;DHT22;32708;51.212;6.788;2022-08-19T11:29:37;28.40;99.90
48604;DHT22;32708;51.212;6.788;2022-08-19T11:32:09;28.40;99.90
48604;DHT22;32708;51.212;6.788;2022-08-19T11:34:37;28.30;99.90
48604;DHT22;32708;51.212;6.788;2022-08-19T11:37:04;28.20;99.90
48604;DHT22;32708;51.212;6.788;2022-08-19T11:39:33;28.10;99.90
48604;DHT22;32708;51.212;6.788;2022-08-19T11:42:01;27.80;99.90
48604;DHT22;32708;51.212;6.788;2022-08-19T11:44:47;27.90;99.90
48604;DHT22;32708;51.212;6.788;2022-08-19T11:47:13;27.90;99.90
48604;DHT22;32708;51.212;6.788;2022-08-19T11:49:39;28.20;99.90
48604;DHT22;32708;51.212;6.788;2022-08-19T11:52:05;28.90;99.90
48604;DHT22;32708;51.212;6.788;2022-08-19T11:54:32;29.10;99.90
48604;DHT22;32708;51.212;6.788;2022-08-19T11:56:59;29.10;99.90
48604;DHT22;32708;51.212;6.788;2022-08-19T11:59:27;28.40;99.90
48604;DHT22;32708;51.212;6.788;2022-08-19T12:01:53;28.20;99.90
48604;DHT22;32708;51.212;6.788;2022-08-19T12:04:19;28.30;99.90
48604;DHT22;32708;51.212;6.788;2022-08-19T12:06:45;28.10;99.90
48604;DHT22;32708;51.212;6.788;2022-08-19T12:09:11;27.90;99.90
48604;DHT22;32708;51.212;6.788;2022-08-19T12:11:38;28.10;99.90
48604;DHT22;32708;51.212;6.788;2022-08-19T12:14:10;27.60;99.90
48604;DHT22;32708;51.212;6.788;2022-08-19T12:16:37;28.20;99.90
48604;DHT22;32708;51.212;6.788;2022-08-19T12:19:04;28.20;99.90
48604;DHT22;32708;51.212;6.788;2022-08-19T12:21:34;28.30;99.90
48604;DHT22;32708;51.212;6.788;2022-08-19T12:24:03;28.50;99.90
48604;DHT22;32708;51.212;6.788;2022-08-19T12:26:31;28.30;99.90
48604;DHT22;32708;51.212;6.788;2022-08-19T12:28:58;28.50;99.90
48604;DHT22;32708;51.212;6.788;2022-08-19T12:31:28;28.40;99.90
48604;DHT22;32708;51.212;6.788;2022-08-19T12:33:55;28.70;99.90
48604;DHT22;32708;51.212;6.788;2022-08-19T12:36:22;28.70;99.90
48604;DHT22;32708;51.212;6.788;2022-08-19T12:38:49;29.10;99.90
48604;DHT22;32708;51.212;6.788;2022-08-19T12:41:17;28.80;99.90
48604;DHT22;32708;51.212;6.788;2022-08-19T12:43:44;28.50;99.90
48604;DHT22;32708;51.212;6.788;2022-08-19T12:46:12;28.60;99.90
48604;DHT22;32708;51.212;6.788;2022-08-19T12:48:39;28.70;99.90
48604;DHT22;32708;51.212;6.788;2022-08-19T12:51:12;28.60;99.90
48604;DHT22;32708;51.212;6.788;2022-08-19T12:53:41;28.30;99.90
48604;DHT22;32708;51.212;6.788;2022-08-19T12:56:10;28.20;99.90
48604;DHT22;32708;51.212;6.788;2022-08-19T12:58:37;28.50;99.90
48604;DHT22;32708;51.212;6.788;2022-08-19T13:01:08;28.60;98.90
48604;DHT22;32708;51.212;6.788;2022-08-19T13:03:40;28.70;97.90
48604;DHT22;32708;51.212;6.788;2022-08-19T13:06:08;28.80;96.10
48604;DHT22;32708;51.212;6.788;2022-08-19T13:08:36;28.70;93.70
48604;DHT22;32708;51.212;6.788;2022-08-19T13:11:16;28.10;94.80
48604;DHT22;32708;51.212;6.788;2022-08-19T13:13:46;27.90;94.90
48604;DHT22;32708;51.212;6.788;2022-08-19T13:16:14;28.00;95.70
48604;DHT22;32708;51.212;6.788;2022-08-19T13:21:13;27.80;95.20
48604;DHT22;32708;51.212;6.788;2022-08-19T13:23:41;27.50;95.30
48604;DHT22;32708;51.212;6.788;2022-08-19T13:26:10;27.40;94.60
48604;DHT22;32708;51.212;6.788;2022-08-19T13:28:39;27.80;94.70
48604;DHT22;32708;51.212;6.788;2022-08-19T13:31:30;28.10;93.70
48604;DHT22;32708;51.212;6.788;2022-08-19T13:34:28;27.90;90.60
48604;DHT22;32708;51.212;6.788;2022-08-19T13:37:01;27.70;87.60
48604;DHT22;32708;51.212;6.788;2022-08-19T13:39:32;28.00;85.30
48604;DHT22;32708;51.212;6.788;2022-08-19T13:41:59;28.10;86.40
48604;DHT22;32708;51.212;6.788;2022-08-19T13:44:27;28.00;81.00
48604;DHT22;32708;51.212;6.788;2022-08-19T13:47:01;27.90;81.30
48604;DHT22;32708;51.212;6.788;2022-08-19T13:49:34;27.80;80.40
48604;DHT22;32708;51.212;6.788;2022-08-19T13:52:03;27.80;80.70
48604;DHT22;32708;51.212;6.788;2022-08-19T13:54:31;27.80;81.20
48604;DHT22;32708;51.212;6.788;2022-08-19T13:56:58;27.70;83.10
48604;DHT22;32708;51.212;6.788;2022-08-19T13:59:27;27.60;82.70
48604;DHT22;32708;51.212;6.788;2022-08-19T14:01:59;27.70;82.40
48604;DHT22;32708;51.212;6.788;2022-08-19T14:04:27;27.70;81.70
48604;DHT22;32708;51.212;6.788;2022-08-19T14:06:53;27.60;82.30
48604;DHT22;32708;51.212;6.788;2022-08-19T14:09:19;27.60;82.10
48604;DHT22;32708;51.212;6.788;2022-08-19T14:11:45;27.70;75.60
48604;DHT22;32708;51.212;6.788;2022-08-19T14:14:12;27.70;71.50
48604;DHT22;32708;51.212;6.788;2022-08-19T14:16:38;27.50;71.10
48604;DHT22;32708;51.212;6.788;2022-08-19T14:19:04;27.50;69.60
48604;DHT22;32708;51.212;6.788;2022-08-19T14:21:30;27.70;70.20
48604;DHT22;32708;51.212;6.788;2022-08-19T14:23:57;27.70;72.10
48604;DHT22;32708;51.212;6.788;2022-08-19T14:26:23;27.70;67.80
48604;DHT22;32708;51.212;6.788;2022-08-19T14:28:49;27.80;67.10
48604;DHT22;32708;51.212;6.788;2022-08-19T14:31:17;27.90;65.00
48604;DHT22;32708;51.212;6.788;2022-08-19T14:33:46;28.00;62.90
48604;DHT22;32708;51.212;6.788;2022-08-19T14:36:13;27.50;61.40
48604;DHT22;32708;51.212;6.788;2022-08-19T14:38:40;27.60;64.00
48604;DHT22;32708;51.212;6.788;2022-08-19T14:41:14;27.80;62.60
48604;DHT22;32708;51.212;6.788;2022-08-19T14:43:43;27.80;63.10
48604;DHT22;32708;51.212;6.788;2022-08-19T14:46:19;27.70;62.90
48604;DHT22;32708;51.212;6.788;2022-08-19T14:48:48;27.50;63.50
48604;DHT22;32708;51.212;6.788;2022-08-19T14:51:15;27.40;65.20
48604;DHT22;32708;51.212;6.788;2022-08-19T14:53:42;27.40;66.60
48604;DHT22;32708;51.212;6.788;2022-08-19T14:56:12;27.20;67.10
48604;DHT22;32708;51.212;6.788;2022-08-19T14:58:42;27.10;67.40
48604;DHT22;32708;51.212;6.788;2022-08-19T15:01:10;27.30;69.20
48604;DHT22;32708;51.212;6.788;2022-08-19T15:03:37;27.30;67.90
48604;DHT22;32708;51.212;6.788;2022-08-19T15:06:07;27.30;67.70
48604;DHT22;32708;51.212;6.788;2022-08-19T15:08:36;27.20;67.40
48604;DHT22;32708;51.212;6.788;2022-08-19T15:11:09;27.20;67.00
48604;DHT22;32708;51.212;6.788;2022-08-19T15:13:38;27.10;68.00
48604;DHT22;32708;51.212;6.788;2022-08-19T15:16:05;27.20;66.90
48604;DHT22;32708;51.212;6.788;2022-08-19T15:18:32;27.30;68.40
48604;DHT22;32708;51.212;6.788;2022-08-19T15:21:03;27.30;66.10
48604;DHT22;32708;51.212;6.788;2022-08-19T15:23:34;27.20;66.40
48604;DHT22;32708;51.212;6.788;2022-08-19T15:26:01;27.30;66.30
48604;DHT22;32708;51.212;6.788;2022-08-19T15:28:28;27.20;68.00
48604;DHT22;32708;51.212;6.788;2022-08-19T15:30:55;26.70;70.30
48604;DHT22;32708;51.212;6.788;2022-08-19T15:33:23;27.00;73.40
48604;DHT22;32708;51.212;6.788;2022-08-19T15:35:51;27.00;76.70
48604;DHT22;32708;51.212;6.788;2022-08-19T15:38:20;27.10;76.80
48604;DHT22;32708;51.212;6.788;2022-08-19T15:40:51;26.90;78.90
48604;DHT22;32708;51.212;6.788;2022-08-19T15:43:18;27.00;81.80
48604;DHT22;32708;51.212;6.788;2022-08-19T15:45:47;26.90;82.30
48604;DHT22;32708;51.212;6.788;2022-08-19T15:48:13;26.70;83.20
48604;DHT22;32708;51.212;6.788;2022-08-19T15:50:40;26.60;85.20
48604;DHT22;32708;51.212;6.788;2022-08-19T15:53:08;26.80;86.20
48604;DHT22;32708;51.212;6.788;2022-08-19T15:55:42;26.80;87.70
48604;DHT22;32708;51.212;6.788;2022-08-19T15:58:15;26.70;90.60
48604;DHT22;32708;51.212;6.788;2022-08-19T16:01:07;26.70;91.00
48604;DHT22;32708;51.212;6.788;2022-08-19T16:03:53;26.60;93.30